Brocket, Canada
Current Conditions -  °F | °C
As of 7:00 AM on Monday 20 Oct 2014 (Local Time) from CZPC Reporting Station
Clear Clear  
Wind Chill: 52°   Ceiling: Unl
Heat Index: 52°   Visibility: 9mi
Dew Point: 34°   Wind: 9mph
Humidity: 50%   Direction: 210°SSW
Pressure: 29.77"   Gusts: NA
Location:  49.55°N, 113.75°W
Report Text: CZPC 201300Z AUTO 21008KT 9SM CLR 11/01 A2977 RMK SLP078 DENSITY ALT 4400FT
Loading
Personal Weather Stations






























Interactive Weather Map
Tropical Storm Tracking
New forecast layout! Learn more

10-Day Weather Forecast

Advertisements
Track Severe Weather on mobile